createdAt,value
2022-08-05T00:01:19.986Z,0
2022-08-05T00:02:54.640Z,0
2022-08-05T00:03:59.450Z,0
2022-08-05T00:05:05.754Z,0
2022-08-05T00:08:00.673Z,0
2022-08-05T00:09:36.583Z,0
2022-08-05T00:10:45.846Z,0
2022-08-05T00:11:55.946Z,0
2022-08-05T00:13:18.497Z,0
2022-08-05T00:14:54.126Z,0
2022-08-05T00:16:00.225Z,0
2022-08-05T00:17:03.020Z,0
2022-08-05T00:18:22.588Z,0
2022-08-05T00:19:33.072Z,0
2022-08-05T00:21:08.376Z,0
2022-08-05T00:22:11.196Z,0
2022-08-05T00:23:14.452Z,0
2022-08-05T00:24:18.861Z,0
2022-08-05T00:25:45.432Z,0
2022-08-05T00:26:54.587Z,0
2022-08-05T00:27:59.350Z,0
2022-08-05T00:29:04.408Z,0
2022-08-05T00:30:11.181Z,0
2022-08-05T00:31:15.434Z,0
2022-08-05T00:34:42.963Z,0
2022-08-05T00:36:15.335Z,0
2022-08-05T00:38:20.448Z,0
2022-08-05T00:39:41.439Z,0
2022-08-05T00:41:11.615Z,0
2022-08-05T00:42:31.983Z,0
2022-08-05T00:43:41.665Z,0
2022-08-05T00:44:52.671Z,0
2022-08-05T00:45:57.805Z,0
2022-08-05T00:47:05.851Z,0
2022-08-05T00:48:27.367Z,0
2022-08-05T00:49:53.287Z,0
2022-08-05T00:50:56.858Z,0
2022-08-05T00:51:59.465Z,0
2022-08-05T00:53:02.160Z,0
2022-08-05T00:55:04.915Z,0
2022-08-05T00:56:08.163Z,0
2022-08-05T00:57:25.325Z,0
2022-08-05T00:59:06.893Z,0
2022-08-05T01:00:11.880Z,0
2022-08-05T01:01:42.326Z,0
2022-08-05T01:02:53.271Z,0
2022-08-05T01:03:57.465Z,0
2022-08-05T01:05:15.106Z,0
2022-08-05T01:06:17.459Z,0
2022-08-05T01:07:34.169Z,0
2022-08-05T01:08:42.538Z,0
2022-08-05T01:09:55.424Z,0
2022-08-05T01:10:59.338Z,0
2022-08-05T01:12:04.875Z,0
2022-08-05T01:13:22.499Z,0
2022-08-05T01:15:03.827Z,0
2022-08-05T01:16:49.374Z,0
2022-08-05T01:17:54.975Z,0
2022-08-05T01:18:57.911Z,0
2022-08-05T01:20:03.636Z,0
2022-08-05T01:21:07.590Z,0
2022-08-05T01:22:39.684Z,0
2022-08-05T01:23:42.363Z,0
2022-08-05T01:24:57.402Z,0
2022-08-05T01:26:00.629Z,0
2022-08-05T01:27:12.228Z,0
2022-08-05T01:28:24.821Z,0
2022-08-05T01:29:27.245Z,0
2022-08-05T01:30:37.828Z,0
2022-08-05T01:31:42.500Z,0
2022-08-05T01:32:51.403Z,0
2022-08-05T01:33:56.790Z,0
2022-08-05T01:35:01.408Z,0
2022-08-05T01:37:00.594Z,0
2022-08-05T01:38:03.944Z,0
2022-08-05T01:39:06.897Z,0
2022-08-05T01:40:11.487Z,0
2022-08-05T01:41:20.967Z,0
2022-08-05T01:42:27.778Z,0
2022-08-05T01:43:32.359Z,0
2022-08-05T01:44:36.089Z,0
2022-08-05T01:45:42.957Z,0
2022-08-05T01:47:47.812Z,0
2022-08-05T01:48:59.506Z,0
2022-08-05T01:51:11.913Z,0
2022-08-05T01:52:17.766Z,0
2022-08-05T01:53:22.855Z,0
2022-08-05T01:55:05.637Z,0
2022-08-05T01:56:11.500Z,0
2022-08-05T01:59:17.070Z,0
2022-08-05T02:00:19.589Z,0
2022-08-05T02:01:37.957Z,0
2022-08-05T02:02:46.338Z,0
2022-08-05T02:03:58.823Z,0
2022-08-05T02:05:03.041Z,0
2022-08-05T02:06:33.748Z,0
2022-08-05T02:07:56.360Z,0
2022-08-05T02:09:05.014Z,0
2022-08-05T02:10:08.610Z,0
2022-08-05T02:11:23.568Z,0
2022-08-05T02:12:53.135Z,0
2022-08-05T02:13:56.639Z,0
2022-08-05T02:14:59.656Z,0
2022-08-05T02:16:06.051Z,0
2022-08-05T02:17:30.028Z,0
2022-08-05T02:19:47.165Z,0
2022-08-05T02:20:50.630Z,0
2022-08-05T02:21:59.682Z,0
2022-08-05T02:23:02.819Z,0
2022-08-05T02:24:10.881Z,0
2022-08-05T02:25:25.198Z,0
2022-08-05T02:26:54.167Z,0
2022-08-05T02:28:00.261Z,0
2022-08-05T02:29:10.776Z,0
2022-08-05T02:31:04.559Z,0
2022-08-05T02:32:19.986Z,0
2022-08-05T02:33:38.723Z,0
2022-08-05T02:34:41.634Z,0
2022-08-05T02:36:15.479Z,0
2022-08-05T02:37:19.914Z,0
2022-08-05T02:38:35.028Z,0
2022-08-05T02:39:37.988Z,0
2022-08-05T02:40:54.869Z,0
2022-08-05T02:42:20.897Z,0
2022-08-05T02:43:38.545Z,0
2022-08-05T02:45:18.471Z,0
2022-08-05T02:46:59.006Z,0
2022-08-05T02:48:12.228Z,0
2022-08-05T02:49:18.332Z,0
2022-08-05T02:50:26.991Z,0
2022-08-05T02:52:01.261Z,0
2022-08-05T02:53:11.637Z,0
2022-08-05T02:54:34.312Z,0
2022-08-05T02:55:59.769Z,0
2022-08-05T02:57:09.756Z,0
2022-08-05T02:59:15.985Z,0
2022-08-05T03:00:28.805Z,0
2022-08-05T03:01:40.319Z,4
2022-08-05T03:02:46.855Z,4
2022-08-05T03:04:02.304Z,4
2022-08-05T03:06:53.350Z,4
2022-08-05T03:08:07.232Z,8
2022-08-05T03:09:36.656Z,4
2022-08-05T03:11:41.241Z,4
2022-08-05T03:14:05.897Z,8
2022-08-05T03:15:18.304Z,8
2022-08-05T03:16:24.714Z,8
2022-08-05T03:17:32.709Z,12
2022-08-05T03:18:47.482Z,16
2022-08-05T03:19:50.820Z,16
2022-08-05T03:20:53.534Z,20
2022-08-05T03:22:01.270Z,20
2022-08-05T03:23:35.801Z,28
2022-08-05T03:24:50.851Z,32
2022-08-05T03:26:03.556Z,36
2022-08-05T03:27:39.461Z,36
2022-08-05T03:29:04.018Z,40
2022-08-05T03:30:19.538Z,40
2022-08-05T03:31:56.322Z,44
2022-08-05T03:33:03.047Z,48
2022-08-05T03:34:07.400Z,48
2022-08-05T03:35:13.016Z,52
2022-08-05T03:36:28.068Z,56
2022-08-05T03:37:37.802Z,68
2022-08-05T03:38:54.713Z,72
2022-08-05T03:39:58.874Z,72
2022-08-05T03:41:38.565Z,76
2022-08-05T03:42:57.313Z,76
2022-08-05T03:45:21.327Z,92
2022-08-05T03:46:29.602Z,120
2022-08-05T03:47:41.262Z,144
2022-08-05T03:48:46.718Z,156
2022-08-05T03:49:51.163Z,172
2022-08-05T03:50:55.230Z,184
2022-08-05T03:57:42.098Z,356
2022-08-05T03:58:51.108Z,384
2022-08-05T03:59:55.551Z,408
2022-08-05T04:00:58.022Z,492
2022-08-05T04:02:05.932Z,576
2022-08-05T04:03:14.950Z,600
2022-08-05T04:04:32.949Z,616
2022-08-05T04:05:40.163Z,664
2022-08-05T04:06:50.970Z,728
2022-08-05T04:07:58.975Z,788
2022-08-05T04:09:04.141Z,768
2022-08-05T04:10:09.362Z,832
2022-08-05T04:11:21.706Z,820
2022-08-05T04:12:53.979Z,884
2022-08-05T04:14:05.170Z,808
2022-08-05T04:15:07.988Z,792
2022-08-05T04:16:32.375Z,772
2022-08-05T04:17:36.553Z,652
2022-08-05T04:19:03.358Z,560
2022-08-05T04:20:14.554Z,520
2022-08-05T04:22:05.414Z,504
2022-08-05T04:23:57.463Z,364
2022-08-05T04:25:38.627Z,256
2022-08-05T04:27:05.882Z,212
2022-08-05T04:28:11.477Z,212
2022-08-05T04:29:19.754Z,236
2022-08-05T04:30:28.234Z,252
2022-08-05T04:31:38.368Z,272
2022-08-05T04:32:42.036Z,340
2022-08-05T04:33:55.115Z,496
2022-08-05T04:36:11.475Z,664
2022-08-05T04:38:01.855Z,628
2022-08-05T04:39:09.507Z,660
2022-08-05T04:40:17.080Z,804
2022-08-05T04:41:21.772Z,1060
2022-08-05T04:42:51.216Z,1348
2022-08-05T04:43:55.543Z,1472
2022-08-05T04:44:59.922Z,1640
2022-08-05T04:46:05.095Z,1908
2022-08-05T04:47:10.425Z,2184
2022-08-05T04:48:27.752Z,2440
2022-08-05T04:49:39.371Z,2844
2022-08-05T04:52:11.931Z,3076
2022-08-05T04:53:16.136Z,3268
2022-08-05T04:54:18.525Z,3384
2022-08-05T04:56:00.164Z,3124
2022-08-05T04:57:40.816Z,2488
2022-08-05T04:58:56.533Z,2364
2022-08-05T04:59:59.857Z,2324
2022-08-05T05:01:03.077Z,2064
2022-08-05T05:02:37.816Z,1752
2022-08-05T05:03:47.165Z,1512
2022-08-05T05:04:50.581Z,1424
2022-08-05T05:06:35.727Z,1180
2022-08-05T05:08:02.953Z,1076
2022-08-05T05:09:34.457Z,1156
2022-08-05T05:10:47.246Z,1124
2022-08-05T05:12:02.042Z,932
2022-08-05T05:13:09.326Z,852
2022-08-05T05:14:16.433Z,876
2022-08-05T05:15:54.513Z,820
2022-08-05T05:17:09.490Z,724
2022-08-05T05:18:12.267Z,668
2022-08-05T05:19:19.129Z,600
2022-08-05T05:20:49.760Z,528
2022-08-05T05:21:56.170Z,528
2022-08-05T05:23:38.892Z,528
2022-08-05T05:25:16.232Z,544
2022-08-05T05:26:19.867Z,572
2022-08-05T05:27:53.844Z,572
2022-08-05T05:28:59.608Z,552
2022-08-05T05:30:30.022Z,552
2022-08-05T05:32:37.922Z,564
2022-08-05T05:33:57.098Z,616
2022-08-05T05:35:05.035Z,656
2022-08-05T05:36:10.912Z,680
2022-08-05T05:37:29.245Z,728
2022-08-05T05:39:14.997Z,760
2022-08-05T05:40:22.126Z,748
2022-08-05T05:41:39.929Z,784
2022-08-05T05:42:56.346Z,876
2022-08-05T05:44:00.421Z,988
2022-08-05T05:45:48.336Z,1288
2022-08-05T05:46:51.224Z,1464
2022-08-05T05:48:05.944Z,1676
2022-08-05T05:49:22.761Z,1936
2022-08-05T05:50:25.823Z,2040
2022-08-05T05:51:28.595Z,2120
2022-08-05T05:52:56.396Z,2324
2022-08-05T05:54:01.791Z,2444
2022-08-05T05:55:05.968Z,2428
2022-08-05T05:56:25.897Z,2320
2022-08-05T05:57:42.679Z,2488
2022-08-05T05:58:55.068Z,2916
2022-08-05T06:00:08.810Z,3368
2022-08-05T06:01:15.258Z,3616
2022-08-05T06:02:32.466Z,3648
2022-08-05T06:03:54.357Z,3428
2022-08-05T06:05:10.301Z,2788
2022-08-05T06:06:22.385Z,2216
2022-08-05T06:07:41.483Z,1980
2022-08-05T06:09:05.596Z,1904
2022-08-05T06:11:11.053Z,1880
2022-08-05T06:12:18.087Z,1932
2022-08-05T06:13:28.220Z,2064
2022-08-05T06:14:57.911Z,2360
2022-08-05T06:16:27.880Z,2484
2022-08-05T06:17:52.548Z,2284
2022-08-05T06:18:59.896Z,1920
2022-08-05T06:20:36.161Z,1672
2022-08-05T06:21:42.276Z,1556
2022-08-05T06:22:56.843Z,1520
2022-08-05T06:24:05.883Z,1620
2022-08-05T06:25:59.930Z,1792
2022-08-05T06:28:09.841Z,2224
2022-08-05T06:29:45.559Z,2808
2022-08-05T06:31:30.656Z,3324
2022-08-05T06:32:37.235Z,3296
2022-08-05T06:34:06.567Z,3008
2022-08-05T06:35:22.003Z,2980
2022-08-05T06:37:16.753Z,3036
2022-08-05T06:39:13.517Z,4172
2022-08-05T06:40:18.023Z,5820
2022-08-05T06:41:34.952Z,6908
2022-08-05T06:42:47.194Z,6352
2022-08-05T06:43:59.322Z,5692
2022-08-05T06:45:05.201Z,5120
2022-08-05T06:47:10.247Z,5872
2022-08-05T06:50:17.314Z,3792
2022-08-05T06:51:29.101Z,3864
2022-08-05T06:52:37.541Z,4156
2022-08-05T06:54:30.220Z,4416
2022-08-05T06:55:36.269Z,4596
2022-08-05T06:56:54.624Z,5324
2022-08-05T06:59:42.302Z,7364
2022-08-05T07:01:01.984Z,7764
2022-08-05T07:02:05.901Z,8068
2022-08-05T07:03:09.715Z,8236
2022-08-05T07:04:13.866Z,8116
2022-08-05T07:05:27.756Z,8000
2022-08-05T07:06:46.699Z,7932
2022-08-05T07:07:52.678Z,8144
2022-08-05T07:08:55.853Z,8640
2022-08-05T07:10:06.776Z,10140
2022-08-05T07:11:15.193Z,12364
2022-08-05T07:12:27.054Z,14804
2022-08-05T07:13:37.254Z,16292
2022-08-05T07:15:03.198Z,16160
2022-08-05T07:16:12.108Z,14648
2022-08-05T07:21:59.182Z,7984
2022-08-05T07:23:09.742Z,8944
2022-08-05T07:24:34.476Z,10428
2022-08-05T07:25:57.438Z,9932
2022-08-05T07:27:00.534Z,10560
2022-08-05T07:28:12.024Z,10052
2022-08-05T07:29:21.043Z,9444
2022-08-05T07:31:54.808Z,6752
2022-08-05T07:32:57.943Z,6592
2022-08-05T07:34:00.965Z,5680
2022-08-05T07:35:56.617Z,5580
2022-08-05T07:37:28.897Z,6320
2022-08-05T07:38:54.641Z,7284
2022-08-05T07:40:04.958Z,8344
2022-08-05T07:42:07.607Z,7864
2022-08-05T07:43:38.535Z,6556
2022-08-05T07:44:46.210Z,6324
2022-08-05T07:45:56.950Z,7188
2022-08-05T07:47:25.763Z,7720
2022-08-05T07:49:01.071Z,7348
2022-08-05T07:50:10.683Z,8360
2022-08-05T07:51:23.185Z,8672
2022-08-05T07:52:57.522Z,8220
2022-08-05T07:54:01.759Z,7564
2022-08-05T07:55:04.432Z,7504
2022-08-05T07:59:21.863Z,7884
2022-08-05T08:00:50.405Z,8000
2022-08-05T08:01:57.562Z,9192
2022-08-05T08:03:13.426Z,8484
2022-08-05T08:04:22.964Z,6852
2022-08-05T08:05:45.922Z,6136
2022-08-05T08:06:51.867Z,6528
2022-08-05T08:07:58.899Z,5148
2022-08-05T08:09:03.330Z,5320
2022-08-05T08:10:08.495Z,5464
2022-08-05T08:11:13.761Z,5052
2022-08-05T08:14:00.951Z,3852
2022-08-05T08:15:09.373Z,4364
2022-08-05T08:17:52.823Z,4428
2022-08-05T08:19:07.449Z,4408
2022-08-05T08:22:18.488Z,3312
2022-08-05T08:24:00.553Z,3732
2022-08-05T08:25:26.612Z,4556
2022-08-05T08:27:08.990Z,4912
2022-08-05T08:28:35.825Z,4740
2022-08-05T08:31:51.146Z,3248
2022-08-05T08:32:53.864Z,3400
2022-08-05T08:34:03.751Z,3460
2022-08-05T08:35:13.598Z,3308
2022-08-05T08:36:37.278Z,3276
2022-08-05T08:38:07.169Z,3156
2022-08-05T08:39:44.330Z,2488
2022-08-05T08:40:52.867Z,2164
2022-08-05T08:41:59.672Z,2024
2022-08-05T08:45:56.029Z,1908
2022-08-05T08:47:00.808Z,1924
2022-08-05T08:52:02.720Z,1660
2022-08-05T08:53:16.710Z,1348
2022-08-05T08:54:21.157Z,1264
2022-08-05T08:55:32.315Z,1160
2022-08-05T08:57:11.144Z,1192
2022-08-05T08:58:59.272Z,1456
2022-08-05T09:00:34.925Z,1484
2022-08-05T09:01:42.973Z,1568
2022-08-05T09:03:03.335Z,1744
2022-08-05T09:04:10.585Z,1596
2022-08-05T09:05:17.151Z,1368
2022-08-05T09:07:39.625Z,1716
2022-08-05T09:09:02.205Z,2032
2022-08-05T09:10:05.073Z,2204
2022-08-05T09:11:12.060Z,2600
2022-08-05T09:12:20.346Z,3336
2022-08-05T09:13:41.491Z,2948
2022-08-05T09:16:14.624Z,3920
2022-08-05T09:17:41.595Z,5280
2022-08-05T09:18:56.331Z,6552
2022-08-05T09:20:13.091Z,7704
2022-08-05T09:22:17.505Z,8532
2022-08-05T09:23:43.262Z,9452
2022-08-05T09:24:46.463Z,9716
2022-08-05T09:26:00.486Z,9776
2022-08-05T09:28:03.493Z,9088
2022-08-05T09:29:30.680Z,8768
2022-08-05T09:30:49.863Z,8144
2022-08-05T09:32:40.476Z,7768
2022-08-05T09:33:59.446Z,7100
2022-08-05T09:35:03.336Z,6764
2022-08-05T09:36:11.634Z,6656
2022-08-05T09:38:11.828Z,6464
2022-08-05T09:39:42.069Z,6656
2022-08-05T09:40:59.800Z,7600
2022-08-05T09:42:06.360Z,7288
2022-08-05T09:43:40.321Z,7768
2022-08-05T09:44:51.353Z,8004
2022-08-05T09:47:15.967Z,8700
2022-08-05T09:48:23.704Z,9396
2022-08-05T09:49:40.552Z,9772
2022-08-05T09:51:15.090Z,11128
2022-08-05T09:52:18.962Z,12028
2022-08-05T09:53:53.269Z,12884
2022-08-05T09:55:06.201Z,13984
2022-08-05T09:57:20.756Z,13260
2022-08-05T09:58:28.979Z,12068
2022-08-05T09:59:34.963Z,11360
2022-08-05T10:00:39.904Z,12240
2022-08-05T10:01:45.479Z,11656
2022-08-05T10:02:48.614Z,12252
2022-08-05T10:03:57.117Z,13460
2022-08-05T10:05:10.562Z,13980
2022-08-05T10:06:17.752Z,15228
2022-08-05T10:07:32.049Z,18860
2022-08-05T10:10:02.717Z,13880
2022-08-05T10:11:35.421Z,11504
2022-08-05T10:12:39.385Z,11684
2022-08-05T10:13:57.244Z,9340
2022-08-05T10:15:02.696Z,9360
2022-08-05T10:16:11.877Z,9408
2022-08-05T10:17:37.048Z,6304
2022-08-05T10:19:04.364Z,4528
2022-08-05T10:20:16.459Z,4608
2022-08-05T10:21:25.828Z,5984
2022-08-05T10:22:48.611Z,6964
2022-08-05T10:24:00.748Z,7932
2022-08-05T10:25:14.323Z,7940
2022-08-05T10:26:18.277Z,6960
2022-08-05T10:28:10.008Z,7356
2022-08-05T10:30:07.361Z,7604
2022-08-05T10:34:16.854Z,15948
2022-08-05T10:35:33.597Z,12468
2022-08-05T10:37:01.705Z,7964
2022-08-05T10:38:11.823Z,6876
2022-08-05T10:39:15.086Z,6652
2022-08-05T10:41:45.095Z,9032
2022-08-05T10:42:51.195Z,10712
2022-08-05T10:43:56.753Z,10708
2022-08-05T10:45:09.560Z,9520
2022-08-05T10:46:44.957Z,8048
2022-08-05T10:48:04.900Z,7560
2022-08-05T10:50:36.384Z,8276
2022-08-05T10:51:48.569Z,8896
2022-08-05T10:53:12.898Z,8992
2022-08-05T10:54:28.904Z,9976
2022-08-05T10:56:03.935Z,10648
2022-08-05T10:57:32.534Z,10928
2022-08-05T10:58:53.857Z,10488
2022-08-05T11:01:28.177Z,6864
2022-08-05T11:03:51.244Z,6404
2022-08-05T11:04:54.650Z,5956
2022-08-05T11:06:01.215Z,5428
2022-08-05T11:07:09.281Z,6076
2022-08-05T11:08:33.972Z,6324
2022-08-05T11:09:45.691Z,6204
2022-08-05T11:10:50.123Z,6016
2022-08-05T11:12:19.185Z,5132
2022-08-05T11:13:24.834Z,4872
2022-08-05T11:15:01.628Z,4464
2022-08-05T11:17:05.008Z,4868
2022-08-05T11:20:09.816Z,5088
2022-08-05T11:21:30.633Z,4620
2022-08-05T11:23:02.158Z,4816
2022-08-05T11:24:14.627Z,5152
2022-08-05T11:26:03.774Z,5408
2022-08-05T11:27:12.236Z,6152
2022-08-05T11:28:17.028Z,6764
2022-08-05T11:29:19.411Z,6684
2022-08-05T11:30:26.685Z,6816
2022-08-05T11:31:54.933Z,7796
2022-08-05T11:33:05.813Z,7924
2022-08-05T11:34:26.204Z,6508
2022-08-05T11:35:35.983Z,4868
2022-08-05T11:38:27.465Z,4472
2022-08-05T11:40:00.928Z,3952
2022-08-05T11:41:12.729Z,3692
2022-08-05T11:43:19.465Z,3788
2022-08-05T11:46:15.910Z,3600
2022-08-05T11:48:50.150Z,3956
2022-08-05T11:49:54.520Z,3836
2022-08-05T11:50:59.915Z,3840
2022-08-05T11:52:08.861Z,3808
2022-08-05T11:53:16.554Z,3108
2022-08-05T11:54:19.404Z,2936
2022-08-05T11:55:37.376Z,2740
2022-08-05T11:56:41.318Z,2244
2022-08-05T11:58:08.755Z,2640
2022-08-05T11:59:24.387Z,3312
2022-08-05T12:00:52.749Z,3472
2022-08-05T12:01:57.031Z,3528
2022-08-05T12:03:01.402Z,3804
2022-08-05T12:04:04.660Z,3728
2022-08-05T12:05:18.186Z,3360
2022-08-05T12:06:32.606Z,3140
2022-08-05T12:08:02.993Z,3348
2022-08-05T12:09:37.870Z,3724
2022-08-05T12:10:57.908Z,5208
2022-08-05T12:12:08.190Z,4552
2022-08-05T12:13:15.746Z,5372
2022-08-05T12:14:53.500Z,6016
2022-08-05T12:15:59.886Z,5952
2022-08-05T12:17:02.536Z,5384
2022-08-05T12:20:16.471Z,9192
2022-08-05T12:21:38.930Z,8744
2022-08-05T12:22:41.967Z,9476
2022-08-05T12:23:56.225Z,7568
2022-08-05T12:25:08.479Z,6676
2022-08-05T12:26:27.654Z,6472
2022-08-05T12:27:32.452Z,6324
2022-08-05T12:28:55.006Z,6648
2022-08-05T12:29:58.253Z,6240
2022-08-05T12:31:05.028Z,4904
2022-08-05T12:32:09.539Z,5788
2022-08-05T12:33:27.174Z,5936
2022-08-05T12:34:50.093Z,7316
2022-08-05T12:35:53.306Z,6844
2022-08-05T12:36:56.602Z,5496
2022-08-05T12:37:59.499Z,4588
2022-08-05T12:39:06.886Z,4232
2022-08-05T12:40:11.274Z,3332
2022-08-05T12:41:34.285Z,3444
2022-08-05T12:42:46.542Z,3820
2022-08-05T12:43:51.600Z,4396
2022-08-05T12:44:56.616Z,5796
2022-08-05T12:45:59.262Z,6132
2022-08-05T12:47:02.410Z,6776
2022-08-05T12:48:17.831Z,4452
2022-08-05T12:50:02.865Z,4224
2022-08-05T12:51:21.966Z,4860
2022-08-05T12:53:55.818Z,8508
2022-08-05T12:55:01.663Z,8212
2022-08-05T12:56:05.356Z,7488
2022-08-05T12:58:38.146Z,6812
2022-08-05T13:02:57.490Z,3640
2022-08-05T13:04:01.719Z,3572
2022-08-05T13:05:14.418Z,3744
2022-08-05T13:06:17.116Z,2600
2022-08-05T13:07:47.727Z,1800
2022-08-05T13:09:09.843Z,2240
2022-08-05T13:10:30.813Z,2868
2022-08-05T13:11:46.979Z,3732
2022-08-05T13:14:04.316Z,3868
2022-08-05T13:15:41.853Z,4152
2022-08-05T13:16:54.386Z,4272
2022-08-05T13:18:00.785Z,4552
2022-08-05T13:19:03.894Z,5072
2022-08-05T13:20:08.697Z,4792
2022-08-05T13:21:13.484Z,5356
2022-08-05T13:22:27.923Z,5868
2022-08-05T13:23:36.909Z,5656
2022-08-05T13:24:57.846Z,5016
2022-08-05T13:27:02.708Z,4308
2022-08-05T13:28:40.959Z,4020
2022-08-05T13:29:59.658Z,3888
2022-08-05T13:32:03.542Z,5132
2022-08-05T13:33:11.176Z,5512
2022-08-05T13:35:31.662Z,4036
2022-08-05T13:37:05.807Z,4936
2022-08-05T13:38:15.818Z,4764
2022-08-05T13:40:14.963Z,5028
2022-08-05T13:41:55.204Z,4804
2022-08-05T13:43:00.247Z,6844
2022-08-05T13:44:02.725Z,8168
2022-08-05T13:45:12.110Z,6876
2022-08-05T13:47:02.215Z,5320
2022-08-05T13:50:06.484Z,7116
2022-08-05T13:51:19.744Z,7368
2022-08-05T13:52:29.298Z,8976
2022-08-05T13:53:47.660Z,9948
2022-08-05T13:54:56.980Z,11764
2022-08-05T13:56:17.982Z,12568
2022-08-05T13:57:22.853Z,10544
2022-08-05T13:58:54.737Z,11364
2022-08-05T14:00:27.987Z,11492
2022-08-05T14:01:36.342Z,12728
2022-08-05T14:03:02.977Z,12888
2022-08-05T14:04:08.359Z,11852
2022-08-05T14:05:12.134Z,12172
2022-08-05T14:07:56.792Z,11216
2022-08-05T14:09:42.905Z,10548
2022-08-05T14:10:49.364Z,10896
2022-08-05T14:12:00.592Z,10768
2022-08-05T14:13:35.495Z,12576
2022-08-05T14:14:37.859Z,13128
2022-08-05T14:16:06.600Z,12328
2022-08-05T14:17:21.119Z,9744
2022-08-05T14:18:29.413Z,9500
2022-08-05T14:19:33.234Z,8744
2022-08-05T14:22:09.824Z,9024
2022-08-05T14:23:15.295Z,8972
2022-08-05T14:24:40.079Z,7284
2022-08-05T14:25:53.786Z,6136
2022-08-05T14:27:17.336Z,5924
2022-08-05T14:28:26.112Z,5940
2022-08-05T14:29:31.272Z,5500
2022-08-05T14:30:36.346Z,5116
2022-08-05T14:31:54.667Z,5288
2022-08-05T14:33:32.437Z,5640
2022-08-05T14:35:04.192Z,6036
2022-08-05T14:36:13.558Z,6040
2022-08-05T14:37:22.867Z,6696
2022-08-05T14:38:57.020Z,7344
2022-08-05T14:40:06.083Z,7324
2022-08-05T14:41:09.060Z,9104
2022-08-05T14:42:29.327Z,10528
2022-08-05T14:43:59.964Z,12112
2022-08-05T14:45:30.593Z,10660
2022-08-05T14:46:35.240Z,10296
2022-08-05T14:48:02.562Z,9864
2022-08-05T14:49:56.563Z,12096
2022-08-05T14:51:27.650Z,12776
2022-08-05T14:52:52.247Z,12692
2022-08-05T14:54:27.288Z,17488
2022-08-05T14:55:54.827Z,27264
2022-08-05T14:56:57.724Z,25536
2022-08-05T14:58:01.211Z,21024
2022-08-05T14:59:16.543Z,19712
2022-08-05T15:00:27.826Z,18460
2022-08-05T15:02:01.804Z,20768
2022-08-05T15:03:18.244Z,20640
2022-08-05T15:04:27.355Z,16068
2022-08-05T15:06:07.066Z,12200
2022-08-05T15:08:05.945Z,14360
2022-08-05T15:10:05.847Z,13952
2022-08-05T15:11:13.062Z,11548
2022-08-05T15:12:17.787Z,10924
2022-08-05T15:13:20.698Z,10524
2022-08-05T15:14:53.981Z,11396
2022-08-05T15:15:59.065Z,11560
2022-08-05T15:17:03.865Z,11316
2022-08-05T15:18:55.134Z,11552
2022-08-05T15:20:02.678Z,11628
2022-08-05T15:21:07.290Z,11496
2022-08-05T15:22:10.811Z,12772
2022-08-05T15:23:18.502Z,13252
2022-08-05T15:24:21.104Z,11976
2022-08-05T15:25:40.649Z,12384
2022-08-05T15:27:04.988Z,12968
2022-08-05T15:28:15.434Z,12196
2022-08-05T15:29:19.760Z,10828
2022-08-05T15:30:43.335Z,9068
2022-08-05T15:31:54.897Z,8720
2022-08-05T15:33:07.112Z,8160
2022-08-05T15:34:19.199Z,7884
2022-08-05T15:35:44.975Z,7272
2022-08-05T15:36:51.665Z,6864
2022-08-05T15:38:08.935Z,7048
2022-08-05T15:40:42.045Z,7224
2022-08-05T15:43:50.785Z,9856
2022-08-05T15:44:57.213Z,10508
2022-08-05T15:46:01.263Z,11072
2022-08-05T15:47:06.074Z,11420
2022-08-05T15:48:09.298Z,12124
2022-08-05T15:49:26.504Z,12388
2022-08-05T15:51:03.669Z,11236
2022-08-05T15:52:14.075Z,11976
2022-08-05T15:54:14.936Z,12020
2022-08-05T15:55:18.018Z,10904
2022-08-05T15:57:19.928Z,9700
2022-08-05T15:58:23.418Z,9944
2022-08-05T15:59:28.148Z,9060
2022-08-05T16:00:43.200Z,8132
2022-08-05T16:02:53.478Z,7480
2022-08-05T16:04:01.218Z,8716
2022-08-05T16:05:04.101Z,9944
2022-08-05T16:06:13.231Z,10040
2022-08-05T16:07:24.671Z,8756
2022-08-05T16:08:33.028Z,7448
2022-08-05T16:09:41.646Z,8224
2022-08-05T16:10:45.811Z,10132
2022-08-05T16:11:53.121Z,11936
2022-08-05T16:12:58.280Z,11776
2022-08-05T16:14:01.356Z,13348
2022-08-05T16:15:04.726Z,12820
2022-08-05T16:16:21.155Z,13920
2022-08-05T16:17:30.819Z,14472
2022-08-05T16:18:34.540Z,14392
2022-08-05T16:20:04.044Z,11892
2022-08-05T16:21:15.010Z,10496
2022-08-05T16:22:18.592Z,9964
2022-08-05T16:23:53.091Z,8612
2022-08-05T16:25:54.828Z,10224
2022-08-05T16:26:59.756Z,9672
2022-08-05T16:28:05.754Z,8848
2022-08-05T16:29:16.545Z,7728
2022-08-05T16:30:26.023Z,6864
2022-08-05T16:31:56.598Z,6256
2022-08-05T16:33:00.071Z,6252
2022-08-05T16:34:02.512Z,7212
2022-08-05T16:35:11.614Z,7936
2022-08-05T16:36:54.433Z,9956
2022-08-05T16:38:00.495Z,10268
2022-08-05T16:40:05.371Z,10280
2022-08-05T16:42:13.086Z,8992
2022-08-05T16:43:34.367Z,7636
2022-08-05T16:44:38.380Z,8876
2022-08-05T16:46:03.429Z,8344
2022-08-05T16:47:29.166Z,7136
2022-08-05T16:49:05.582Z,6488
2022-08-05T16:50:08.485Z,6544
2022-08-05T16:51:13.827Z,7100
2022-08-05T16:52:18.107Z,7492
2022-08-05T16:54:02.303Z,7336
2022-08-05T16:55:46.292Z,8160
2022-08-05T16:56:52.071Z,8028
2022-08-05T16:57:59.960Z,8024
2022-08-05T16:59:20.403Z,7940
2022-08-05T17:00:25.874Z,6612
2022-08-05T17:01:53.362Z,5920
2022-08-05T17:03:02.388Z,5880
2022-08-05T17:04:23.763Z,6368
2022-08-05T17:05:31.018Z,6108
2022-08-05T17:06:39.324Z,5480
2022-08-05T17:07:55.821Z,5160
2022-08-05T17:08:59.042Z,4776
2022-08-05T17:10:01.673Z,4644
2022-08-05T17:11:05.703Z,4164
2022-08-05T17:12:22.424Z,3860
2022-08-05T17:14:00.325Z,4100
2022-08-05T17:15:48.074Z,4320
2022-08-05T17:17:42.242Z,5044
2022-08-05T17:18:45.705Z,4732
2022-08-05T17:19:53.796Z,4588
2022-08-05T17:20:59.334Z,4720
2022-08-05T17:22:05.498Z,4344
2022-08-05T17:24:03.884Z,3940
2022-08-05T17:26:34.808Z,2176
2022-08-05T17:27:43.488Z,1824
2022-08-05T17:28:47.223Z,1540
2022-08-05T17:29:53.038Z,1436
2022-08-05T17:31:08.127Z,1628
2022-08-05T17:33:02.003Z,1992
2022-08-05T17:34:10.308Z,1960
2022-08-05T17:36:06.980Z,2236
2022-08-05T17:37:48.341Z,3544
2022-08-05T17:38:53.263Z,4132
2022-08-05T17:40:02.614Z,3896
2022-08-05T17:41:22.833Z,3568
2022-08-05T17:43:54.243Z,3060
2022-08-05T17:45:09.729Z,2768
2022-08-05T17:46:41.426Z,2732
2022-08-05T17:47:54.306Z,2852
2022-08-05T17:48:59.068Z,2988
2022-08-05T17:50:10.483Z,3272
2022-08-05T17:51:14.300Z,3964
2022-08-05T17:52:28.473Z,4580
2022-08-05T17:53:33.079Z,4564
2022-08-05T17:54:43.070Z,4288
2022-08-05T17:55:45.700Z,4020
2022-08-05T17:56:49.044Z,3680
2022-08-05T17:57:53.855Z,3532
2022-08-05T17:58:56.510Z,3356
2022-08-05T18:00:03.915Z,3120
2022-08-05T18:01:09.925Z,2808
2022-08-05T18:02:17.447Z,2696
2022-08-05T18:03:48.609Z,2692
2022-08-05T18:05:35.317Z,2712
2022-08-05T18:06:40.573Z,2852
2022-08-05T18:08:02.260Z,2976
2022-08-05T18:09:06.496Z,2848
2022-08-05T18:10:20.676Z,2516
2022-08-05T18:11:29.739Z,2236
2022-08-05T18:12:38.094Z,2184
2022-08-05T18:13:43.934Z,2200
2022-08-05T18:14:47.769Z,2056
2022-08-05T18:15:52.642Z,1804
2022-08-05T18:16:56.878Z,1496
2022-08-05T18:18:10.835Z,1348
2022-08-05T18:19:13.529Z,1308
2022-08-05T18:20:17.567Z,1244
2022-08-05T18:21:21.295Z,1092
2022-08-05T18:23:40.765Z,656
2022-08-05T18:24:55.146Z,1108
2022-08-05T18:25:59.397Z,1596
2022-08-05T18:27:03.366Z,1736
2022-08-05T18:28:21.885Z,1680
2022-08-05T18:29:40.180Z,1648
2022-08-05T18:30:56.675Z,1524
2022-08-05T18:31:59.236Z,1468
2022-08-05T18:33:04.656Z,1480
2022-08-05T18:34:12.105Z,1436
2022-08-05T18:35:49.881Z,1388
2022-08-05T18:37:33.730Z,1364
2022-08-05T18:38:44.094Z,1280
2022-08-05T18:40:32.011Z,1236
2022-08-05T18:43:16.219Z,1092
2022-08-05T18:44:33.421Z,1040
2022-08-05T18:46:02.186Z,944
2022-08-05T18:47:12.122Z,900
2022-08-05T18:48:17.492Z,816
2022-08-05T18:49:44.715Z,732
2022-08-05T18:52:03.447Z,672
2022-08-05T18:53:20.905Z,592
2022-08-05T18:54:51.780Z,536